Rock Creek, Oregon
Current Conditions -  °F | °C
As of 12:25 AM on Friday 24 Oct 2014 (Local Time) from KHIO Reporting Station
Broken Clouds Broken Clouds  
Wind Chill: 50°   Ceiling: 1200
Heat Index: 50°   Visibility: 8mi
Dew Point: 50°   Wind: 10mph
Humidity: 100%   Direction: 320°NW
Pressure: 30.02"   Gusts: NA
Location:  45.5526°N, 122.821°W
Report Text: KHIO 240725Z AUTO 32009KT 8SM SCT002 BKN012 BKN017 10/10 A3002 RMK AO2 T01000100 TSNO
Loading
Personal Weather Stations






























Interactive Weather Map
Tropical Storm Tracking
New forecast layout! Learn more

10-Day Weather Forecast

Advertisements
Track Severe Weather on mobile